createdAt,value
2022-08-01T00:00:31.304Z,1005.3
2022-08-01T00:01:34.710Z,1005.3
2022-08-01T00:02:38.041Z,1005.3
2022-08-01T00:03:41.739Z,1005.2
2022-08-01T00:04:44.094Z,1005.2
2022-08-01T00:05:47.009Z,1005.3
2022-08-01T00:06:49.967Z,1005.3
2022-08-01T00:07:51.743Z,1005.2
2022-08-01T00:08:54.659Z,1005.2
2022-08-01T00:09:57.384Z,1005.3
2022-08-01T00:11:03.117Z,1005.2
2022-08-01T00:12:05.804Z,1005.3
2022-08-01T00:13:10.660Z,1005.3
2022-08-01T00:14:13.375Z,1005.2
2022-08-01T00:15:15.177Z,1005.3
2022-08-01T00:16:18.081Z,1005.3
2022-08-01T00:17:20.510Z,1005.2
2022-08-01T00:18:23.686Z,1005.2
2022-08-01T00:19:26.400Z,1005.3
2022-08-01T00:20:28.911Z,1005.2
2022-08-01T00:21:32.381Z,1005.2
2022-08-01T00:22:34.897Z,1005.2
2022-08-01T00:23:37.249Z,1005.2
2022-08-01T00:24:39.934Z,1005.2
2022-08-01T00:25:42.543Z,1005.1
2022-08-01T00:26:45.161Z,1005.1
2022-08-01T00:27:47.986Z,1005.1
2022-08-01T00:28:51.964Z,1005.1
2022-08-01T00:30:14.756Z,1005
2022-08-01T00:31:17.629Z,1005
2022-08-01T00:32:23.240Z,1005
2022-08-01T00:33:27.503Z,1005
2022-08-01T00:34:30.181Z,1005
2022-08-01T00:35:33.311Z,1005
2022-08-01T00:36:36.289Z,1005
2022-08-01T00:37:39.460Z,1005
2022-08-01T00:38:42.156Z,1005
2022-08-01T00:39:45.380Z,1005
2022-08-01T00:40:47.403Z,1005
2022-08-01T00:42:00.089Z,1004.9
2022-08-01T00:43:03.350Z,1004.9
2022-08-01T00:44:06.030Z,1004.9
2022-08-01T00:45:08.320Z,1005
2022-08-01T00:46:10.999Z,1004.9
2022-08-01T00:47:13.896Z,1004.9
2022-08-01T00:48:16.513Z,1004.9
2022-08-01T00:49:19.359Z,1004.9
2022-08-01T00:50:22.803Z,1004.9
2022-08-01T00:51:27.144Z,1004.9
2022-08-01T00:52:29.760Z,1004.8
2022-08-01T00:53:52.406Z,1004.9
2022-08-01T00:54:59.477Z,1004.9
2022-08-01T00:56:02.393Z,1004.9
2022-08-01T00:57:10.837Z,1004.9
2022-08-01T00:58:18.251Z,1004.9
2022-08-01T00:59:23.211Z,1004.9
2022-08-01T01:00:28.438Z,1004.9
2022-08-01T01:01:56.493Z,1004.9
2022-08-01T01:03:02.364Z,1004.9
2022-08-01T01:04:09.233Z,1004.9
2022-08-01T01:05:11.515Z,1004.9
2022-08-01T01:06:13.930Z,1004.9
2022-08-01T01:07:16.847Z,1004.9
2022-08-01T01:08:18.985Z,1004.9
2022-08-01T01:09:21.724Z,1004.9
2022-08-01T01:10:23.533Z,1004.9
2022-08-01T01:11:26.498Z,1004.9
2022-08-01T01:12:29.128Z,1004.8
2022-08-01T01:13:50.867Z,1004.9
2022-08-01T01:14:54.528Z,1004.9
2022-08-01T01:15:57.159Z,1004.9
2022-08-01T01:16:59.466Z,1004.9
2022-08-01T01:18:02.589Z,1004.9
2022-08-01T01:19:05.154Z,1004.9
2022-08-01T01:20:07.799Z,1004.9
2022-08-01T01:21:12.236Z,1004.9
2022-08-01T01:22:14.518Z,1004.8
2022-08-01T01:23:17.155Z,1004.9
2022-08-01T01:24:19.784Z,1004.9
2022-08-01T01:25:22.477Z,1004.9
2022-08-01T01:26:25.327Z,1004.8
2022-08-01T01:27:28.322Z,1004.9
2022-08-01T01:28:31.779Z,1004.9
2022-08-01T01:30:01.331Z,1004.9
2022-08-01T01:31:04.207Z,1004.8
2022-08-01T01:32:07.979Z,1004.9
2022-08-01T01:33:11.524Z,1004.9
2022-08-01T01:34:14.147Z,1004.9
2022-08-01T01:35:17.058Z,1004.9
2022-08-01T01:36:19.435Z,1004.8
2022-08-01T01:37:22.564Z,1004.9
2022-08-01T01:38:25.253Z,1004.9
2022-08-01T01:39:28.367Z,1004.9
2022-08-01T01:40:30.932Z,1004.9
2022-08-01T01:41:33.564Z,1004.9
2022-08-01T01:42:36.691Z,1004.8
2022-08-01T01:43:39.093Z,1004.9
2022-08-01T01:44:42.010Z,1004.8
2022-08-01T01:45:44.700Z,1004.8
2022-08-01T01:46:47.623Z,1004.8
2022-08-01T01:47:49.700Z,1004.9
2022-08-01T01:48:52.755Z,1004.8
2022-08-01T01:49:55.367Z,1004.9
2022-08-01T01:50:58.347Z,1004.8
2022-08-01T01:52:03.374Z,1004.8
2022-08-01T01:53:15.668Z,1004.9
2022-08-01T01:54:18.839Z,1004.9
2022-08-01T01:55:21.681Z,1004.9
2022-08-01T01:56:23.744Z,1004.9
2022-08-01T01:57:26.639Z,1004.8
2022-08-01T01:58:29.343Z,1004.9
2022-08-01T01:59:32.255Z,1004.9
2022-08-01T02:00:35.159Z,1004.8
2022-08-01T02:02:08.491Z,1004.9
2022-08-01T02:03:13.887Z,1004.9
2022-08-01T02:04:17.131Z,1004.9
2022-08-01T02:05:20.074Z,1004.9
2022-08-01T02:06:23.042Z,1004.9
2022-08-01T02:07:25.336Z,1004.8
2022-08-01T02:08:31.789Z,1004.9
2022-08-01T02:09:35.322Z,1004.9
2022-08-01T02:10:37.947Z,1004.9
2022-08-01T02:12:09.230Z,1004.9
2022-08-01T02:13:13.275Z,1004.9
2022-08-01T02:14:15.977Z,1004.9
2022-08-01T02:15:18.329Z,1004.9
2022-08-01T02:16:21.216Z,1004.9
2022-08-01T02:17:23.842Z,1004.9
2022-08-01T02:18:26.829Z,1004.9
2022-08-01T02:19:29.615Z,1004.9
2022-08-01T02:20:32.513Z,1004.9
2022-08-01T02:21:34.369Z,1004.9
2022-08-01T02:22:36.917Z,1004.9
2022-08-01T02:23:39.260Z,1004.9
2022-08-01T02:24:42.435Z,1004.8
2022-08-01T02:26:11.800Z,1004.8
2022-08-01T02:27:14.709Z,1004.8
2022-08-01T02:28:18.198Z,1004.8
2022-08-01T02:29:21.174Z,1004.8
2022-08-01T02:30:24.360Z,1004.8
2022-08-01T02:31:26.774Z,1004.8
2022-08-01T02:32:29.127Z,1004.8
2022-08-01T02:33:32.033Z,1004.8
2022-08-01T02:34:34.651Z,1004.8
2022-08-01T02:36:33.498Z,1004.8
2022-08-01T02:37:36.245Z,1004.8
2022-08-01T02:38:46.418Z,1004.8
2022-08-01T02:39:48.487Z,1004.8
2022-08-01T02:40:51.119Z,1004.8
2022-08-01T02:41:54.298Z,1004.8
2022-08-01T02:42:57.259Z,1004.8
2022-08-01T02:43:59.052Z,1004.8
2022-08-01T02:45:01.925Z,1004.8
2022-08-01T02:46:04.235Z,1004.8
2022-08-01T02:47:06.866Z,1004.8
2022-08-01T02:48:09.763Z,1004.8
2022-08-01T02:49:12.841Z,1004.8
2022-08-01T02:50:16.432Z,1004.8
2022-08-01T02:51:18.827Z,1004.8
2022-08-01T02:52:21.940Z,1004.8
2022-08-01T02:53:44.920Z,1004.8
2022-08-01T02:54:47.828Z,1004.8
2022-08-01T02:55:50.467Z,1004.9
2022-08-01T02:56:52.870Z,1004.9
2022-08-01T02:58:01.459Z,1004.9
2022-08-01T02:59:05.458Z,1004.9
2022-08-01T03:00:10.034Z,1004.9
2022-08-01T03:01:15.308Z,1004.9
2022-08-01T03:02:17.937Z,1004.9
2022-08-01T03:03:21.105Z,1004.9
2022-08-01T03:04:23.447Z,1004.9
2022-08-01T03:05:26.288Z,1004.9
2022-08-01T03:06:28.729Z,1004.9
2022-08-01T03:07:39.757Z,1004.9
2022-08-01T03:08:44.028Z,1004.9
2022-08-01T03:09:47.213Z,1004.9
2022-08-01T03:10:50.127Z,1005
2022-08-01T03:11:52.821Z,1004.9
2022-08-01T03:12:55.988Z,1005
2022-08-01T03:13:58.861Z,1005
2022-08-01T03:15:01.285Z,1004.9
2022-08-01T03:16:04.475Z,1005
2022-08-01T03:17:07.438Z,1005
2022-08-01T03:18:10.117Z,1004.9
2022-08-01T03:19:12.809Z,1004.9
2022-08-01T03:20:15.713Z,1005
2022-08-01T03:21:19.116Z,1005
2022-08-01T03:22:21.741Z,1005
2022-08-01T03:23:38.612Z,1005
2022-08-01T03:24:41.494Z,1005
2022-08-01T03:25:44.393Z,1005
2022-08-01T03:26:47.364Z,1005.1
2022-08-01T03:27:49.990Z,1005.1
2022-08-01T03:28:52.835Z,1005.1
2022-08-01T03:29:55.192Z,1005
2022-08-01T03:30:57.836Z,1005
2022-08-01T03:32:01.076Z,1005
2022-08-01T03:33:04.507Z,1005
2022-08-01T03:34:07.191Z,1005
2022-08-01T03:35:10.034Z,1005
2022-08-01T03:36:12.609Z,1005
2022-08-01T03:37:14.974Z,1005
2022-08-01T03:38:18.438Z,1005
2022-08-01T03:39:21.705Z,1005
2022-08-01T03:40:24.286Z,1005.1
2022-08-01T03:41:26.573Z,1005
2022-08-01T03:42:29.203Z,1005
2022-08-01T03:43:31.790Z,1005.1
2022-08-01T03:44:34.148Z,1005
2022-08-01T03:45:36.848Z,1005
2022-08-01T03:46:39.419Z,1005.1
2022-08-01T03:47:45.346Z,1005.1
2022-08-01T03:48:49.030Z,1005
2022-08-01T03:49:51.773Z,1005.1
2022-08-01T03:50:55.023Z,1005.1
2022-08-01T03:51:57.927Z,1005.1
2022-08-01T03:53:00.006Z,1005.1
2022-08-01T03:54:02.571Z,1005.1
2022-08-01T03:55:05.558Z,1005.1
2022-08-01T03:56:08.184Z,1005.1
2022-08-01T03:57:37.180Z,1005.1
2022-08-01T03:58:40.904Z,1005.1
2022-08-01T03:59:43.254Z,1005.1
2022-08-01T04:00:46.437Z,1005.1
2022-08-01T04:01:49.106Z,1005.2
2022-08-01T04:02:52.156Z,1005.2
2022-08-01T04:03:54.778Z,1005.2
2022-08-01T04:04:58.175Z,1005.2
2022-08-01T04:06:02.501Z,1005.2
2022-08-01T04:07:04.579Z,1005.2
2022-08-01T04:08:07.557Z,1005.2
2022-08-01T04:09:14.154Z,1005.2
2022-08-01T04:10:16.779Z,1005.2
2022-08-01T04:11:19.687Z,1005.2
2022-08-01T04:12:23.095Z,1005.3
2022-08-01T04:13:36.909Z,1005.3
2022-08-01T04:14:46.138Z,1005.2
2022-08-01T04:15:48.764Z,1005.2
2022-08-01T04:16:51.603Z,1005.2
2022-08-01T04:17:54.798Z,1005.3
2022-08-01T04:18:57.232Z,1005.3
2022-08-01T04:20:00.915Z,1005.3
2022-08-01T04:21:03.589Z,1005.3
2022-08-01T04:22:07.498Z,1005.3
2022-08-01T04:23:10.617Z,1005.3
2022-08-01T04:24:13.245Z,1005.3
2022-08-01T04:25:16.363Z,1005.3
2022-08-01T04:26:18.988Z,1005.3
2022-08-01T04:27:52.569Z,1005.3
2022-08-01T04:28:55.810Z,1005.4
2022-08-01T04:29:59.004Z,1005.4
2022-08-01T04:31:02.793Z,1005.4
2022-08-01T04:32:05.998Z,1005.4
2022-08-01T04:33:10.090Z,1005.4
2022-08-01T04:34:12.375Z,1005.4
2022-08-01T04:36:04.960Z,1005.4
2022-08-01T04:37:07.625Z,1005.5
2022-08-01T04:38:10.334Z,1005.5
2022-08-01T04:39:13.257Z,1005.5
2022-08-01T04:40:16.432Z,1005.5
2022-08-01T04:41:19.053Z,1005.5
2022-08-01T04:42:30.554Z,1005.5
2022-08-01T04:43:36.821Z,1005.5
2022-08-01T04:44:40.056Z,1005.5
2022-08-01T04:45:43.017Z,1005.5
2022-08-01T04:46:45.956Z,1005.5
2022-08-01T04:47:48.879Z,1005.5
2022-08-01T04:48:51.650Z,1005.6
2022-08-01T04:49:54.606Z,1005.5
2022-08-01T04:50:56.750Z,1005.6
2022-08-01T04:51:59.138Z,1005.6
2022-08-01T04:53:02.254Z,1005.6
2022-08-01T04:54:05.955Z,1005.6
2022-08-01T04:55:08.250Z,1005.6
2022-08-01T04:56:10.603Z,1005.6
2022-08-01T04:57:13.505Z,1005.6
2022-08-01T04:58:19.191Z,1005.6
2022-08-01T04:59:21.552Z,1005.6
2022-08-01T05:00:24.185Z,1005.6
2022-08-01T05:01:27.337Z,1005.6
2022-08-01T05:02:30.937Z,1005.6
2022-08-01T05:03:39.377Z,1005.6
2022-08-01T05:04:42.884Z,1005.7
2022-08-01T05:05:45.799Z,1005.6
2022-08-01T05:06:48.492Z,1005.7
2022-08-01T05:07:51.423Z,1005.7
2022-08-01T05:08:53.546Z,1005.7
2022-08-01T05:09:56.226Z,1005.7
2022-08-01T05:10:59.115Z,1005.7
2022-08-01T05:12:02.053Z,1005.7
2022-08-01T05:13:06.092Z,1005.7
2022-08-01T05:14:08.498Z,1005.7
2022-08-01T05:15:15.890Z,1005.7
2022-08-01T05:16:17.984Z,1005.7
2022-08-01T05:17:20.863Z,1005.7
2022-08-01T05:18:28.883Z,1005.7
2022-08-01T05:19:34.005Z,1005.8
2022-08-01T05:20:36.914Z,1005.8
2022-08-01T05:21:39.297Z,1005.8
2022-08-01T05:22:41.588Z,1005.8
2022-08-01T05:23:43.977Z,1005.8
2022-08-01T05:24:49.602Z,1005.8
2022-08-01T05:25:58.947Z,1005.8
2022-08-01T05:27:03.652Z,1005.8
2022-08-01T05:28:08.714Z,1005.8
2022-08-01T05:29:11.390Z,1005.8
2022-08-01T05:30:14.012Z,1005.8
2022-08-01T05:31:16.612Z,1005.8
2022-08-01T05:32:19.506Z,1005.8
2022-08-01T05:33:21.909Z,1005.8
2022-08-01T05:34:24.822Z,1005.8
2022-08-01T05:35:49.495Z,1005.8
2022-08-01T05:36:57.946Z,1005.8
2022-08-01T05:38:00.436Z,1005.8
2022-08-01T05:39:02.994Z,1005.8
2022-08-01T05:40:05.289Z,1005.8
2022-08-01T05:41:08.280Z,1005.8
2022-08-01T05:42:11.466Z,1005.9
2022-08-01T05:43:13.537Z,1005.8
2022-08-01T05:44:16.158Z,1005.9
2022-08-01T05:45:18.775Z,1005.8
2022-08-01T05:46:24.096Z,1005.9
2022-08-01T05:47:30.343Z,1005.8
2022-08-01T05:48:32.955Z,1005.9
2022-08-01T05:49:36.216Z,1005.8
2022-08-01T05:50:38.544Z,1005.9
2022-08-01T05:51:41.436Z,1005.9
2022-08-01T05:52:44.062Z,1005.9
2022-08-01T05:53:46.690Z,1005.9
2022-08-01T05:54:49.817Z,1005.9
2022-08-01T05:55:52.166Z,1005.8
2022-08-01T05:56:54.526Z,1005.9
2022-08-01T05:57:57.777Z,1005.9
2022-08-01T05:59:00.756Z,1005.9
2022-08-01T06:00:03.414Z,1005.9
2022-08-01T06:01:05.766Z,1005.9
2022-08-01T06:02:10.129Z,1005.9
2022-08-01T06:03:13.561Z,1005.9
2022-08-01T06:04:16.679Z,1005.9
2022-08-01T06:05:19.515Z,1005.9
2022-08-01T06:06:26.121Z,1005.9
2022-08-01T06:07:29.335Z,1005.9
2022-08-01T06:08:32.046Z,1005.9
2022-08-01T06:09:34.620Z,1005.9
2022-08-01T06:10:37.809Z,1005.9
2022-08-01T06:11:40.717Z,1006
2022-08-01T06:12:43.851Z,1005.9
2022-08-01T06:13:49.148Z,1006
2022-08-01T06:14:52.086Z,1006
2022-08-01T06:15:55.328Z,1006
2022-08-01T06:16:57.912Z,1005.9
2022-08-01T06:18:00.763Z,1006
2022-08-01T06:19:03.416Z,1006
2022-08-01T06:20:06.602Z,1006
2022-08-01T06:21:09.040Z,1006
2022-08-01T06:22:12.104Z,1006
2022-08-01T06:23:33.194Z,1006
2022-08-01T06:24:35.793Z,1006.1
2022-08-01T06:25:38.924Z,1006.1
2022-08-01T06:26:41.838Z,1006.1
2022-08-01T06:27:44.959Z,1006.1
2022-08-01T06:28:47.253Z,1006.2
2022-08-01T06:29:54.424Z,1006.2
2022-08-01T06:30:57.642Z,1006.2
2022-08-01T06:32:00.631Z,1006.2
2022-08-01T06:33:03.197Z,1006.2
2022-08-01T06:34:05.212Z,1006.2
2022-08-01T06:35:07.557Z,1006.2
2022-08-01T06:36:10.413Z,1006.2
2022-08-01T06:37:13.918Z,1006.2
2022-08-01T06:38:16.833Z,1006.3
2022-08-01T06:39:18.852Z,1006.3
2022-08-01T06:40:20.929Z,1006.3
2022-08-01T06:41:24.188Z,1006.3
2022-08-01T06:42:26.822Z,1006.3
2022-08-01T06:43:29.732Z,1006.3
2022-08-01T06:44:32.092Z,1006.3
2022-08-01T06:45:34.176Z,1006.3
2022-08-01T06:46:36.350Z,1006.3
2022-08-01T06:47:38.987Z,1006.3
2022-08-01T06:48:41.558Z,1006.4
2022-08-01T06:49:44.474Z,1006.3
2022-08-01T06:50:47.381Z,1006.4
2022-08-01T06:51:50.506Z,1006.4
2022-08-01T06:52:53.073Z,1006.4
2022-08-01T06:53:55.907Z,1006.4
2022-08-01T06:54:57.636Z,1006.4
2022-08-01T06:56:00.423Z,1006.4
2022-08-01T06:57:03.593Z,1006.4
2022-08-01T06:58:06.210Z,1006.3
2022-08-01T06:59:08.763Z,1006.4
2022-08-01T07:00:11.677Z,1006.5
2022-08-01T07:01:14.994Z,1006.4
2022-08-01T07:02:19.398Z,1006.4
2022-08-01T07:03:22.034Z,1006.4
2022-08-01T07:04:24.888Z,1006.4
2022-08-01T07:05:27.788Z,1006.5
2022-08-01T07:06:30.981Z,1006.5
2022-08-01T07:07:33.334Z,1006.4
2022-08-01T07:08:39.574Z,1006.5
2022-08-01T07:09:42.755Z,1006.4
2022-08-01T07:10:45.945Z,1006.4
2022-08-01T07:11:48.297Z,1006.4
2022-08-01T07:12:50.934Z,1006.4
2022-08-01T07:13:53.000Z,1006.4
2022-08-01T07:14:55.337Z,1006.5
2022-08-01T07:15:57.961Z,1006.5
2022-08-01T07:17:01.097Z,1006.5
2022-08-01T07:18:04.079Z,1006.5
2022-08-01T07:19:07.214Z,1006.5
2022-08-01T07:20:10.967Z,1006.5
2022-08-01T07:21:41.304Z,1006.6
2022-08-01T07:22:56.707Z,1006.5
2022-08-01T07:24:14.370Z,1006.6
2022-08-01T07:25:24.075Z,1006.6
2022-08-01T07:26:26.984Z,1006.5
2022-08-01T07:27:29.719Z,1006.6
2022-08-01T07:28:32.006Z,1006.6
2022-08-01T07:29:34.746Z,1006.6
2022-08-01T07:30:37.716Z,1006.6
2022-08-01T07:31:40.604Z,1006.7
2022-08-01T07:32:43.481Z,1006.7
2022-08-01T07:33:49.591Z,1006.6
2022-08-01T07:34:52.174Z,1006.6
2022-08-01T07:35:55.323Z,1006.7
2022-08-01T07:36:57.892Z,1006.7
2022-08-01T07:38:01.160Z,1006.7
2022-08-01T07:39:03.525Z,1006.7
2022-08-01T07:40:06.155Z,1006.7
2022-08-01T07:41:08.181Z,1006.8
2022-08-01T07:42:11.379Z,1006.7
2022-08-01T07:43:16.286Z,1006.8
2022-08-01T07:44:19.567Z,1006.8
2022-08-01T07:45:22.588Z,1006.8
2022-08-01T07:46:25.256Z,1006.9
2022-08-01T07:47:28.447Z,1006.8
2022-08-01T07:48:30.522Z,1006.8
2022-08-01T07:49:40.495Z,1006.9
2022-08-01T07:50:43.550Z,1006.8
2022-08-01T07:52:14.181Z,1006.8
2022-08-01T07:53:19.162Z,1006.8
2022-08-01T07:54:34.543Z,1006.8
2022-08-01T07:55:37.781Z,1006.9
2022-08-01T07:56:40.980Z,1006.9
2022-08-01T07:57:43.272Z,1006.9
2022-08-01T07:58:45.405Z,1006.9
2022-08-01T07:59:48.461Z,1006.9
2022-08-01T08:00:51.134Z,1006.9
2022-08-01T08:01:54.235Z,1006.9
2022-08-01T08:02:57.301Z,1007
2022-08-01T08:04:00.156Z,1007
2022-08-01T08:05:02.787Z,1006.9
2022-08-01T08:06:06.807Z,1007
2022-08-01T08:07:10.339Z,1007
2022-08-01T08:08:12.559Z,1007
2022-08-01T08:09:15.970Z,1007
2022-08-01T08:10:18.051Z,1007
2022-08-01T08:11:20.684Z,1007.1
2022-08-01T08:12:29.845Z,1007.1
2022-08-01T08:13:32.325Z,1007.1
2022-08-01T08:14:35.168Z,1007.1
2022-08-01T08:15:39.533Z,1007.1
2022-08-01T08:16:50.197Z,1007.1
2022-08-01T08:17:55.624Z,1007.1
2022-08-01T08:18:58.319Z,1007.1
2022-08-01T08:20:01.230Z,1007.1
2022-08-01T08:21:07.032Z,1007.2
2022-08-01T08:22:10.778Z,1007.1
2022-08-01T08:23:43.904Z,1007.2
2022-08-01T08:24:47.741Z,1007.2
2022-08-01T08:25:50.146Z,1007.2
2022-08-01T08:26:52.934Z,1007.2
2022-08-01T08:27:55.493Z,1007.2
2022-08-01T08:28:58.781Z,1007.3
2022-08-01T08:30:01.883Z,1007.2
2022-08-01T08:31:04.847Z,1007.2
2022-08-01T08:32:08.915Z,1007.3
2022-08-01T08:33:13.963Z,1007.3
2022-08-01T08:34:16.882Z,1007.3
2022-08-01T08:35:53.598Z,1007.2
2022-08-01T08:36:59.505Z,1007.3
2022-08-01T08:38:03.807Z,1007.2
2022-08-01T08:39:19.653Z,1007.3
2022-08-01T08:40:23.319Z,1007.3
2022-08-01T08:41:25.727Z,1007.2
2022-08-01T08:42:40.070Z,1007.3
2022-08-01T08:43:43.645Z,1007.3
2022-08-01T08:44:46.843Z,1007.3
2022-08-01T08:46:00.637Z,1007.3
2022-08-01T08:47:03.238Z,1007.3
2022-08-01T08:48:05.526Z,1007.3
2022-08-01T08:49:08.280Z,1007.3
2022-08-01T08:50:13.179Z,1007.3
2022-08-01T08:51:15.848Z,1007.3
2022-08-01T08:52:18.159Z,1007.4
2022-08-01T08:53:21.047Z,1007.3
2022-08-01T08:54:31.908Z,1007.4
2022-08-01T08:55:56.729Z,1007.4
2022-08-01T08:56:59.629Z,1007.4
2022-08-01T08:58:02.280Z,1007.4
2022-08-01T08:59:04.971Z,1007.4
2022-08-01T09:00:07.484Z,1007.4
2022-08-01T09:01:10.183Z,1007.4
2022-08-01T09:02:14.134Z,1007.4
2022-08-01T09:03:17.892Z,1007.5
2022-08-01T09:04:26.274Z,1007.5
2022-08-01T09:05:39.533Z,1007.5
2022-08-01T09:06:42.641Z,1007.5
2022-08-01T09:07:45.592Z,1007.5
2022-08-01T09:08:48.506Z,1007.5
2022-08-01T09:09:51.821Z,1007.5
2022-08-01T09:10:54.961Z,1007.5
2022-08-01T09:11:58.688Z,1007.5
2022-08-01T09:13:01.956Z,1007.5
2022-08-01T09:14:04.855Z,1007.6
2022-08-01T09:15:07.189Z,1007.6
2022-08-01T09:16:09.848Z,1007.6
2022-08-01T09:17:12.524Z,1007.6
2022-08-01T09:18:15.494Z,1007.6
2022-08-01T09:19:41.740Z,1007.7
2022-08-01T09:20:45.363Z,1007.6
2022-08-01T09:21:47.165Z,1007.7
2022-08-01T09:22:50.071Z,1007.7
2022-08-01T09:23:54.987Z,1007.7
2022-08-01T09:24:58.269Z,1007.7
2022-08-01T09:26:00.087Z,1007.7
2022-08-01T09:27:03.909Z,1007.8
2022-08-01T09:28:08.776Z,1007.8
2022-08-01T09:29:17.494Z,1007.8
2022-08-01T09:31:03.091Z,1007.8
2022-08-01T09:32:16.736Z,1007.8
2022-08-01T09:33:22.434Z,1007.9
2022-08-01T09:34:25.072Z,1007.8
2022-08-01T09:35:32.114Z,1007.8
2022-08-01T09:36:46.478Z,1007.8
2022-08-01T09:37:49.609Z,1007.9
2022-08-01T09:38:52.663Z,1007.9
2022-08-01T09:39:55.315Z,1007.9
2022-08-01T09:40:59.288Z,1007.8
2022-08-01T09:42:03.984Z,1007.9
2022-08-01T09:43:10.562Z,1007.9
2022-08-01T09:44:17.412Z,1007.9
2022-08-01T09:45:58.972Z,1007.9
2022-08-01T09:47:08.530Z,1008
2022-08-01T09:48:17.392Z,1008
2022-08-01T09:49:20.580Z,1007.9
2022-08-01T09:50:24.065Z,1008
2022-08-01T09:52:01.050Z,1008
2022-08-01T09:53:04.532Z,1008
2022-08-01T09:54:10.798Z,1008
2022-08-01T09:55:13.217Z,1008
2022-08-01T09:56:16.622Z,1008.1
2022-08-01T09:57:20.084Z,1008.1
2022-08-01T09:58:23.055Z,1008.1
2022-08-01T09:59:57.637Z,1008
2022-08-01T10:01:05.918Z,1008
2022-08-01T10:02:09.839Z,1008.1
2022-08-01T10:03:12.371Z,1008.1
2022-08-01T10:04:19.367Z,1008.1
2022-08-01T10:05:23.990Z,1008.1
2022-08-01T10:06:51.060Z,1008.1
2022-08-01T10:07:54.745Z,1008.1
2022-08-01T10:09:04.989Z,1008.2
2022-08-01T10:10:11.978Z,1008.2
2022-08-01T10:11:17.625Z,1008.2
2022-08-01T10:12:20.883Z,1008.2
2022-08-01T10:13:24.634Z,1008.2
2022-08-01T10:14:41.671Z,1008.2
2022-08-01T10:15:52.892Z,1008.2
2022-08-01T10:17:05.955Z,1008.2
2022-08-01T10:18:26.864Z,1008.2
2022-08-01T10:19:33.191Z,1008.3
2022-08-01T10:20:38.081Z,1008.3
2022-08-01T10:21:59.346Z,1008.3
2022-08-01T10:23:06.853Z,1008.3
2022-08-01T10:24:11.114Z,1008.3
2022-08-01T10:25:14.477Z,1008.3
2022-08-01T10:26:17.399Z,1008.2
2022-08-01T10:27:39.652Z,1008.3
2022-08-01T10:28:44.832Z,1008.3
2022-08-01T10:30:16.942Z,1008.3
2022-08-01T10:31:31.161Z,1008.3
2022-08-01T10:32:35.525Z,1008.3
2022-08-01T10:33:53.651Z,1008.3
2022-08-01T10:35:07.283Z,1008.3
2022-08-01T10:36:50.393Z,1008.3
2022-08-01T10:37:54.978Z,1008.4
2022-08-01T10:38:57.845Z,1008.3
2022-08-01T10:40:30.705Z,1008.4
2022-08-01T10:41:41.905Z,1008.4
2022-08-01T10:42:44.977Z,1008.4
2022-08-01T10:43:49.079Z,1008.4
2022-08-01T10:44:52.570Z,1008.4
2022-08-01T10:45:56.291Z,1008.4
2022-08-01T10:46:59.875Z,1008.4
2022-08-01T10:48:05.129Z,1008.4
2022-08-01T10:49:08.214Z,1008.4
2022-08-01T10:50:15.447Z,1008.4
2022-08-01T10:51:54.601Z,1008.4
2022-08-01T10:52:59.815Z,1008.5
2022-08-01T10:54:53.176Z,1008.5
2022-08-01T10:55:56.293Z,1008.5
2022-08-01T10:57:08.231Z,1008.5
2022-08-01T10:58:16.206Z,1008.5
2022-08-01T10:59:59.170Z,1008.5
2022-08-01T11:01:09.315Z,1008.5
2022-08-01T11:02:12.910Z,1008.5
2022-08-01T11:03:14.997Z,1008.5
2022-08-01T11:04:19.154Z,1008.5
2022-08-01T11:05:33.189Z,1008.5
2022-08-01T11:06:36.219Z,1008.5
2022-08-01T11:07:38.884Z,1008.5
2022-08-01T11:08:42.761Z,1008.5
2022-08-01T11:09:52.303Z,1008.5
2022-08-01T11:10:55.391Z,1008.5
2022-08-01T11:12:01.453Z,1008.5
2022-08-01T11:13:08.626Z,1008.5
2022-08-01T11:14:12.643Z,1008.5
2022-08-01T11:15:30.984Z,1008.6
2022-08-01T11:16:34.345Z,1008.5
2022-08-01T11:17:41.806Z,1008.6
2022-08-01T11:18:47.477Z,1008.6
2022-08-01T11:19:55.685Z,1008.6
2022-08-01T11:22:01.115Z,1008.6
2022-08-01T11:23:04.758Z,1008.6
2022-08-01T11:24:10.348Z,1008.6
2022-08-01T11:25:15.525Z,1008.6
2022-08-01T11:26:30.175Z,1008.7
2022-08-01T11:27:34.035Z,1008.7
2022-08-01T11:29:18.209Z,1008.7
2022-08-01T11:30:26.694Z,1008.7
2022-08-01T11:31:28.985Z,1008.7
2022-08-01T11:33:11.730Z,1008.7
2022-08-01T11:34:16.393Z,1008.7
2022-08-01T11:35:19.032Z,1008.7
2022-08-01T11:37:09.007Z,1008.7
2022-08-01T11:38:18.444Z,1008.8
2022-08-01T11:39:21.633Z,1008.7
2022-08-01T11:40:26.256Z,1008.7
2022-08-01T11:41:39.485Z,1008.8
2022-08-01T11:42:41.747Z,1008.7
2022-08-01T11:43:44.408Z,1008.8
2022-08-01T11:44:48.339Z,1008.8
2022-08-01T11:45:52.566Z,1008.8
2022-08-01T11:46:59.485Z,1008.8
2022-08-01T11:48:02.983Z,1008.8
2022-08-01T11:49:06.176Z,1008.9
2022-08-01T11:50:12.211Z,1008.8
2022-08-01T11:51:25.719Z,1008.8
2022-08-01T11:52:31.249Z,1008.9
2022-08-01T11:53:33.959Z,1008.9
2022-08-01T11:54:43.982Z,1008.9
2022-08-01T11:55:52.021Z,1008.9
2022-08-01T11:56:55.824Z,1008.9
2022-08-01T11:57:58.509Z,1008.9
2022-08-01T11:59:04.332Z,1008.9
2022-08-01T12:00:24.850Z,1008.9
2022-08-01T12:01:28.795Z,1008.9
2022-08-01T12:02:31.894Z,1008.8
2022-08-01T12:03:35.325Z,1008.8
2022-08-01T12:04:37.961Z,1008.9
2022-08-01T12:05:43.934Z,1008.8
2022-08-01T12:06:51.457Z,1008.8
2022-08-01T12:07:56.012Z,1008.8
2022-08-01T12:08:58.685Z,1008.8
2022-08-01T12:10:01.606Z,1008.8
2022-08-01T12:11:07.441Z,1008.8
2022-08-01T12:12:09.787Z,1008.8
2022-08-01T12:13:12.694Z,1008.8
2022-08-01T12:14:15.898Z,1008.8
2022-08-01T12:15:19.352Z,1008.7
2022-08-01T12:16:33.332Z,1008.8
2022-08-01T12:17:36.639Z,1008.8
2022-08-01T12:18:39.227Z,1008.8
2022-08-01T12:19:41.896Z,1008.8
2022-08-01T12:20:57.359Z,1008.8
2022-08-01T12:21:59.425Z,1008.8
2022-08-01T12:23:02.543Z,1008.8
2022-08-01T12:24:05.547Z,1008.8
2022-08-01T12:25:08.728Z,1008.8
2022-08-01T12:26:32.209Z,1008.7
2022-08-01T12:27:35.786Z,1008.7
2022-08-01T12:28:38.432Z,1008.7
2022-08-01T12:29:41.334Z,1008.8
2022-08-01T12:30:44.239Z,1008.8
2022-08-01T12:31:46.931Z,1008.8
2022-08-01T12:32:50.103Z,1008.8
2022-08-01T12:33:53.214Z,1008.8
2022-08-01T12:34:55.770Z,1008.8
2022-08-01T12:36:01.576Z,1008.8
2022-08-01T12:37:04.634Z,1008.8
2022-08-01T12:38:08.753Z,1008.8
2022-08-01T12:39:11.395Z,1008.8
2022-08-01T12:40:14.366Z,1008.9
2022-08-01T12:41:17.568Z,1008.8
2022-08-01T12:42:20.191Z,1008.8
2022-08-01T12:43:29.652Z,1008.9
2022-08-01T12:44:31.777Z,1008.8
2022-08-01T12:45:34.404Z,1008.8
2022-08-01T12:46:44.676Z,1008.9
2022-08-01T12:47:47.302Z,1008.9
2022-08-01T12:48:50.652Z,1008.9
2022-08-01T12:49:53.831Z,1008.8
2022-08-01T12:50:56.463Z,1008.9
2022-08-01T12:51:59.172Z,1008.9
2022-08-01T12:53:02.086Z,1008.9
2022-08-01T12:54:04.394Z,1008.9
2022-08-01T12:55:10.242Z,1008.8
2022-08-01T12:56:13.162Z,1008.9
2022-08-01T12:57:16.675Z,1008.9
2022-08-01T12:58:19.793Z,1008.9
2022-08-01T12:59:22.985Z,1008.9
2022-08-01T13:00:25.717Z,1008.9
2022-08-01T13:01:29.091Z,1008.9
2022-08-01T13:02:32.024Z,1008.8
2022-08-01T13:03:34.979Z,1008.9
2022-08-01T13:04:37.982Z,1008.9
2022-08-01T13:05:40.532Z,1008.8
2022-08-01T13:06:43.653Z,1008.8
2022-08-01T13:07:46.452Z,1008.8
2022-08-01T13:08:49.358Z,1008.8
2022-08-01T13:09:52.230Z,1008.8
2022-08-01T13:10:54.563Z,1008.7
2022-08-01T13:12:04.939Z,1008.8
2022-08-01T13:13:28.856Z,1008.8
2022-08-01T13:14:32.318Z,1008.8
2022-08-01T13:15:34.463Z,1008.8
2022-08-01T13:16:57.678Z,1008.7
2022-08-01T13:18:00.289Z,1008.8
2022-08-01T13:19:02.639Z,1008.8
2022-08-01T13:20:05.094Z,1008.8
2022-08-01T13:21:07.538Z,1008.8
2022-08-01T13:22:10.798Z,1008.7
2022-08-01T13:23:15.525Z,1008.8
2022-08-01T13:25:06.100Z,1008.7
2022-08-01T13:26:08.944Z,1008.8
2022-08-01T13:27:11.095Z,1008.7
2022-08-01T13:28:13.392Z,1008.8
2022-08-01T13:29:16.035Z,1008.7
2022-08-01T13:30:19.285Z,1008.7
2022-08-01T13:31:21.580Z,1008.7
2022-08-01T13:32:31.644Z,1008.7
2022-08-01T13:33:38.712Z,1008.7
2022-08-01T13:34:41.487Z,1008.6
2022-08-01T13:35:44.685Z,1008.6
2022-08-01T13:36:50.267Z,1008.7
2022-08-01T13:37:52.905Z,1008.7
2022-08-01T13:38:55.257Z,1008.8
2022-08-01T13:39:58.450Z,1008.8
2022-08-01T13:41:00.794Z,1008.8
2022-08-01T13:42:04.582Z,1008.8
2022-08-01T13:43:09.389Z,1008.8
2022-08-01T13:44:11.799Z,1008.7